Time;durP1;ratioP1;P1;durP2;ratioP2;P2;SDS_P1;SDS_P2;PMS_P1;PMS_P2;Temp;Humidity;BMP_temperature;BMP_pressure;BME280_temperature;BME280_humidity;BME280_pressure;Samples;Min_cycle;Max_cycle;Signal;HPM_P1;HPM_P2
2022/06/22 00:01:58;;;;;;;0.90;0.85;;;;;;;19.33;45.39;99586.00;4488651;31;33019;-82
2022/06/22 00:04:35;;;;;;;0.80;0.80;;;;;;;19.22;45.88;99594.06;4479485;31;33172;-82
2022/06/22 00:07:13;;;;;;;1.10;0.80;;;;;;;19.16;46.36;99596.25;4479566;31;33126;-82
2022/06/22 00:09:41;;;;;;;1.02;0.70;;;;;;;18.98;47.58;99600.44;4475703;31;32625;-83
2022/06/22 00:12:28;;;;;;;1.58;0.80;;;;;;;18.98;47.06;99589.75;4493030;31;33442;-84
2022/06/22 00:14:59;;;;;;;0.85;0.85;;;;;;;19.12;46.75;99586.78;4477801;31;32508;-83
2022/06/22 00:17:31;;;;;;;1.55;1.08;;;;;;;19.14;46.77;99589.34;4478085;31;33788;-83
2022/06/22 00:20:21;;;;;;;1.95;0.80;;;;;;;19.18;46.33;99580.94;4490741;31;33182;-83
2022/06/22 00:22:57;;;;;;;2.65;0.55;;;;;;;19.06;46.28;99584.63;4481775;31;32339;-83
2022/06/22 00:25:31;;;;;;;2.45;0.88;;;;;;;18.98;46.54;99588.91;4466260;31;32641;-83
2022/06/22 00:28:20;;;;;;;1.35;0.80;;;;;;;19.06;47.33;99584.63;4492160;31;33389;-83
2022/06/22 00:30:48;;;;;;;0.70;0.70;;;;;;;18.96;47.33;99596.22;4476812;31;33894;-82
2022/06/22 00:33:22;;;;;;;2.85;1.10;;;;;;;18.89;47.24;99596.69;4476107;31;32364;-82
2022/06/22 00:35:52;;;;;;;0.80;0.75;;;;;;;18.71;47.94;99592.00;4477656;31;33947;-82
2022/06/22 00:38:31;;;;;;;1.37;1.20;;;;;;;18.77;47.79;99591.50;4480815;31;32665;-83
2022/06/22 00:41:17;;;;;;;2.67;0.73;;;;;;;18.86;47.60;99596.09;4493063;31;34570;-84
2022/06/22 00:43:45;;;;;;;3.20;1.00;;;;;;;18.79;47.67;99601.09;4476864;31;33132;-84
2022/06/22 00:46:16;;;;;;;1.75;1.23;;;;;;;18.68;48.19;99599.28;4491980;31;33830;-84
2022/06/22 00:49:07;;;;;;;0.75;0.75;;;;;;;18.66;48.44;99585.16;4471152;32;33488;-84
2022/06/22 00:51:37;;;;;;;1.60;1.45;;;;;;;18.68;48.38;99587.72;4467243;31;32592;-84
2022/06/22 00:54:11;;;;;;;0.73;0.73;;;;;;;18.74;48.32;99581.87;4490893;31;33037;-83
2022/06/22 00:56:53;;;;;;;0.80;0.80;;;;;;;18.78;48.51;99580.66;4480479;31;34599;-83
2022/06/22 00:59:25;;;;;;;1.83;1.00;;;;;;;18.54;49.04;99586.12;4472544;32;32308;-84
2022/06/22 01:02:04;;;;;;;1.45;1.15;;;;;;;18.66;48.84;99590.53;4477297;31;33611;-83
2022/06/22 01:04:48;;;;;;;1.20;0.95;;;;;;;18.72;48.66;99591.03;4476804;32;33963;-84
2022/06/22 01:07:23;;;;;;;0.90;0.90;;;;;;;18.68;48.21;99593.06;4471664;31;33155;-83
2022/06/22 01:09:58;;;;;;;1.73;1.08;;;;;;;18.46;48.81;99595.75;4465361;31;32975;-83
2022/06/22 01:12:38;;;;;;;2.10;0.98;;;;;;;18.26;49.95;99591.97;4475396;32;32866;-83
2022/06/22 01:15:09;;;;;;;1.08;1.00;;;;;;;18.49;49.62;99601.69;4491360;31;34046;-83
2022/06/22 01:18:04;;;;;;;1.25;1.10;;;;;;;18.58;49.21;99608.16;4498065;31;34262;-83
2022/06/22 01:20:57;;;;;;;1.35;1.00;;;;;;;18.59;49.17;99609.84;4476313;31;33635;-83
2022/06/22 01:23:47;;;;;;;1.85;0.90;;;;;;;18.68;48.99;99593.94;4495136;31;33901;-83
2022/06/22 01:26:29;;;;;;;3.25;1.17;;;;;;;18.27;50.61;99588.31;4487347;31;33114;-83
2022/06/22 01:29:05;;;;;;;1.42;1.02;;;;;;;18.28;51.08;99598.06;4486244;31;33537;-83
2022/06/22 01:31:34;;;;;;;3.65;1.10;;;;;;;18.31;50.80;99595.97;4482996;31;33998;-83
2022/06/22 01:34:03;;;;;;;1.37;1.27;;;;;;;18.31;50.52;99595.97;4481907;31;34312;-84
2022/06/22 01:36:33;;;;;;;1.23;1.00;;;;;;;18.33;50.64;99598.56;4478445;31;33328;-83
2022/06/22 01:39:02;;;;;;;1.62;1.35;;;;;;;18.44;50.35;99590.53;4467824;31;33948;-83
2022/06/22 01:41:37;;;;;;;0.90;0.73;;;;;;;18.30;50.72;99586.28;4493731;31;33608;-83
2022/06/22 01:44:12;;;;;;;2.87;1.15;;;;;;;18.30;50.89;99588.09;4479347;31;33103;-83
2022/06/22 01:46:50;;;;;;;1.40;0.80;;;;;;;18.38;50.42;99594.53;4479344;31;32552;-83
2022/06/22 01:49:24;;;;;;;0.98;0.98;;;;;;;18.38;50.36;99596.37;4491895;31;33466;-83
2022/06/22 01:51:58;;;;;;;2.08;0.95;;;;;;;18.40;50.41;99592.59;4474760;31;33823;-83
2022/06/22 01:54:32;;;;;;;5.82;2.10;;;;;;;18.28;50.48;99590.06;4475093;31;33241;-83
2022/06/22 01:57:21;;;;;;;1.73;1.33;;;;;;;18.22;50.69;99585.16;4481792;31;32934;-83
2022/06/22 02:00:14;;;;;;;0.98;0.80;;;;;;;18.41;50.12;99588.94;4463463;31;33314;-83
2022/06/22 02:03:10;;;;;;;1.23;1.02;;;;;;;18.36;50.00;99587.59;4448944;31;34660;-83
2022/06/22 02:05:44;;;;;;;3.17;1.10;;;;;;;18.30;50.21;99604.97;4478324;31;34113;-83
2022/06/22 02:08:32;;;;;;;1.35;1.25;;;;;;;18.17;50.93;99610.44;4491200;31;33417;-83
2022/06/22 02:11:05;;;;;;;4.28;1.20;;;;;;;18.36;50.04;99598.28;4474816;31;32842;-83
2022/06/22 02:13:38;;;;;;;1.73;0.77;;;;;;;18.34;50.03;99592.22;4488981;31;34019;-83
2022/06/22 02:16:13;;;;;;;1.12;1.05;;;;;;;18.21;50.40;99603.03;4489858;31;34792;-83
2022/06/22 02:18:46;;;;;;;1.92;1.00;;;;;;;18.29;50.16;99615.81;4475770;31;30903;-83
2022/06/22 02:21:20;;;;;;;0.85;0.82;;;;;;;18.23;50.24;99629.63;4490282;31;33027;-83
2022/06/22 02:24:26;;;;;;;0.88;0.88;;;;;;;18.19;50.10;99633.53;4478091;31;33100;-83
2022/06/22 02:27:00;;;;;;;4.20;1.30;;;;;;;18.15;50.55;99632.91;4480043;31;34043;-83
2022/06/22 02:29:35;;;;;;;1.10;1.00;;;;;;;18.24;50.29;99637.53;4491086;31;33029;-83
2022/06/22 02:32:07;;;;;;;1.85;1.12;;;;;;;18.06;50.71;99630.94;4479395;31;33889;-83
2022/06/22 02:34:35;;;;;;;2.60;1.50;;;;;;;18.16;50.16;99634.59;4467442;31;33020;-82
2022/06/22 02:37:06;;;;;;;2.90;1.10;;;;;;;17.99;50.75;99633.22;4466490;31;33275;-83
2022/06/22 02:39:43;;;;;;;2.05;1.20;;;;;;;17.86;50.89;99633.34;4493886;31;34103;-83
2022/06/22 02:44:59;;;;;;;0.75;0.75;;;;;;;17.83;50.64;99638.06;4482030;31;33510;-83
2022/06/22 02:47:44;;;;;;;1.37;1.27;;;;;;;17.86;50.82;99637.84;4480827;31;32611;-83
2022/06/22 02:50:47;;;;;;;1.55;1.40;;;;;;;17.88;50.43;99646.56;4477621;31;31874;-83
2022/06/22 02:53:41;;;;;;;3.37;1.20;;;;;;;17.81;50.51;99656.03;4476778;31;33838;-83
2022/06/22 02:56:15;;;;;;;4.57;1.20;;;;;;;17.70;51.49;99653.28;4489739;31;34340;-82
2022/06/22 02:58:45;;;;;;;2.37;1.10;;;;;;;17.62;51.11;99665.37;4482771;31;34509;-84
2022/06/22 03:01:17;;;;;;;2.17;1.25;;;;;;;17.77;50.74;99665.25;4481551;31;32909;-83
2022/06/22 03:03:54;;;;;;;1.33;1.15;;;;;;;17.79;50.53;99668.63;4464469;31;33469;-83
2022/06/22 03:06:28;;;;;;;2.92;1.30;;;;;;;17.78;51.32;99672.28;4477283;31;33614;-83
2022/06/22 03:08:57;;;;;;;5.43;1.58;;;;;;;17.80;50.85;99675.66;4467317;31;33829;-83
2022/06/22 03:11:26;;;;;;;2.28;1.35;;;;;;;17.83;50.69;99668.28;4485755;31;32398;-83
2022/06/22 03:13:59;;;;;;;1.62;1.02;;;;;;;17.71;51.20;99669.19;4490630;31;33778;-83
2022/06/22 03:16:31;;;;;;;1.60;1.10;;;;;;;17.70;50.93;99674.63;4493794;31;33742;-83
2022/06/22 03:19:10;;;;;;;2.97;1.30;;;;;;;17.66;51.03;99668.69;4467821;31;32640;-83
2022/06/22 03:21:40;;;;;;;2.15;1.15;;;;;;;17.65;51.28;99669.62;4477843;31;33830;-83
2022/06/22 03:24:38;;;;;;;4.15;1.58;;;;;;;17.58;51.66;99668.41;4467847;31;33522;-83
2022/06/22 03:27:16;;;;;;;1.60;1.30;;;;;;;17.77;51.48;99681.25;4480373;31;33201;-83
2022/06/22 03:29:49;;;;;;;1.35;1.12;;;;;;;17.80;51.06;99684.56;4473084;31;33697;-83
2022/06/22 03:32:58;;;;;;;2.85;1.30;;;;;;;17.76;51.25;99688.44;4492118;31;33840;-84
2022/06/22 03:35:41;;;;;;;2.17;1.45;;;;;;;17.76;51.69;99684.91;4415757;32;34663;-84
2022/06/22 03:38:21;;;;;;;1.73;1.12;;;;;;;17.77;51.46;99679.44;4475818;31;33097;-83
2022/06/22 03:40:55;;;;;;;1.45;1.02;;;;;;;17.86;51.37;99686.75;4493925;31;33570;-83
2022/06/22 03:43:31;;;;;;;2.70;1.33;;;;;;;17.89;51.45;99682.97;4477961;31;32509;-82
2022/06/22 03:46:10;;;;;;;1.08;0.93;;;;;;;17.51;53.37;99676.00;4479088;31;33820;-84
2022/06/22 03:48:43;;;;;;;5.22;1.15;;;;;;;17.65;52.37;99670.47;4477808;31;34088;-82
2022/06/22 03:51:13;;;;;;;1.83;1.00;;;;;;;17.93;51.81;99671.09;4478976;31;33478;-83
2022/06/22 03:54:03;;;;;;;2.50;1.20;;;;;;;18.11;50.70;99668.84;4480113;31;33428;-82
2022/06/22 03:56:35;;;;;;;1.65;1.20;;;;;;;18.19;50.82;99658.44;4478509;31;32615;-82
2022/06/22 03:59:04;;;;;;;1.48;1.05;;;;;;;18.48;50.70;99655.31;4467799;31;33046;-82
2022/06/22 04:01:33;;;;;;;4.53;1.27;;;;;;;18.68;50.18;99635.84;4474744;32;33915;-82
2022/06/22 04:04:01;;;;;;;2.00;1.30;;;;;;;18.77;48.43;99628.94;4493502;31;34121;-82
2022/06/22 04:06:33;;;;;;;3.92;1.45;;;;;;;18.84;49.26;99624.78;4492946;31;32759;-82
2022/06/22 04:09:03;;;;;;;6.80;1.75;;;;;;;18.77;48.54;99615.56;4473920;31;33474;-82
2022/06/22 04:11:38;;;;;;;1.62;1.42;;;;;;;19.02;47.95;99609.94;4477906;31;33608;-82
2022/06/22 04:14:17;;;;;;;6.78;1.20;;;;;;;18.92;47.51;99612.50;4476235;31;32917;-82
2022/06/22 04:16:50;;;;;;;3.78;1.33;;;;;;;19.25;47.07;99617.91;4482350;32;32435;-83
2022/06/22 04:19:25;;;;;;;2.45;1.12;;;;;;;19.23;47.42;99614.47;4479913;31;34876;-83
2022/06/22 04:22:00;;;;;;;2.12;1.20;;;;;;;19.22;47.54;99619.00;4480039;31;32804;-83
2022/06/22 04:24:49;;;;;;;3.78;1.23;;;;;;;19.06;47.64;99623.91;4477997;31;32893;-82
2022/06/22 04:27:26;;;;;;;1.87;1.05;;;;;;;19.19;48.14;99614.75;4475394;32;33768;-83
2022/06/22 04:30:15;;;;;;;1.27;1.15;;;;;;;19.32;48.53;99611.03;4474650;31;32973;-83
2022/06/22 04:33:03;;;;;;;2.03;1.40;;;;;;;19.43;48.89;99617.22;4480990;31;33513;-83
2022/06/22 04:35:51;;;;;;;1.27;1.17;;;;;;;19.53;49.22;99611.94;4479705;31;33318;-83
2022/06/22 04:38:26;;;;;;;3.12;1.27;;;;;;;19.73;47.98;99612.13;4486711;31;33650;-83
2022/06/22 04:41:16;;;;;;;2.28;1.30;;;;;;;19.76;47.38;99614.56;4479553;31;33297;-83
2022/06/22 04:43:46;;;;;;;3.65;1.10;;;;;;;19.77;47.32;99610.91;4487674;31;33153;-82
2022/06/22 04:46:19;;;;;;;;;;;;;;;19.95;47.06;99617.38;4474296;31;32238;-83
2022/06/22 04:48:49;;;;;;;2.45;1.10;;;;;;;20.27;46.41;99624.44;4487764;31;33913;-83
2022/06/22 04:51:23;;;;;;;1.80;1.05;;;;;;;20.25;45.60;99624.59;4492243;31;33898;-82
2022/06/22 04:53:58;;;;;;;2.17;1.40;;;;;;;20.65;45.33;99627.37;4470844;31;33913;-82
2022/06/22 04:56:36;;;;;;;1.65;0.90;;;;;;;20.57;43.61;99624.50;4464358;31;35317;-83
2022/06/22 04:59:07;;;;;;;8.35;1.65;;;;;;;20.54;43.90;99629.28;4477946;31;33006;-82
2022/06/22 05:01:42;;;;;;;1.92;1.30;;;;;;;20.79;43.99;99633.31;4470565;31;33799;-83
2022/06/22 05:04:14;;;;;;;1.27;0.80;;;;;;;21.14;44.37;99639.06;4479399;31;33487;-83
2022/06/22 05:06:55;;;;;;;2.53;1.37;;;;;;;21.49;43.78;99640.41;4493701;31;33469;-83
2022/06/22 05:09:43;;;;;;;2.15;0.90;;;;;;;21.72;43.50;99643.69;4471169;31;33080;-83
2022/06/22 05:12:19;;;;;;;3.97;0.90;;;;;;;21.46;42.37;99638.88;4474132;31;33303;-82
2022/06/22 05:14:49;;;;;;;4.30;0.85;;;;;;;21.79;42.47;99643.94;4478209;31;34123;-83
2022/06/22 05:17:31;;;;;;;2.00;0.82;;;;;;;21.97;42.14;99647.59;4436842;32;32599;-82
2022/06/22 05:20:11;;;;;;;5.30;1.27;;;;;;;22.31;42.38;99649.84;4456098;32;32973;-82
2022/06/22 05:22:39;;;;;;;3.67;1.48;;;;;;;22.37;41.70;99654.66;4460936;32;33876;-83
2022/06/22 05:25:12;;;;;;;2.05;1.10;;;;;;;22.06;42.34;99670.94;4449198;32;32682;-83
2022/06/22 05:27:59;;;;;;;1.45;0.93;;;;;;;21.92;41.51;99676.75;4449180;32;34020;-83
2022/06/22 05:30:37;;;;;;;1.73;0.80;;;;;;;21.82;41.27;99682.16;4452881;32;33304;-85
2022/06/22 05:33:16;;;;;;;3.08;1.30;;;;;;;22.20;41.51;99670.53;4449553;31;33767;-83
2022/06/22 05:35:55;;;;;;;1.77;1.00;;;;;;;22.58;40.50;99660.66;4453628;31;34152;-83
2022/06/22 05:38:25;;;;;;;2.67;1.15;;;;;;;22.64;40.01;99668.13;4465678;32;32789;-84
2022/06/22 05:40:54;;;;;;;1.55;0.93;;;;;;;22.89;38.66;99655.06;4462650;32;33591;-83
2022/06/22 05:43:23;;;;;;;2.67;0.85;;;;;;;22.81;38.71;99660.28;4450960;32;34692;-83
2022/06/22 05:45:57;;;;;;;5.40;1.45;;;;;;;23.08;38.44;99665.72;4463262;32;33154;-83
2022/06/22 05:48:27;;;;;;;1.58;0.90;;;;;;;23.47;37.93;99660.94;4435731;32;32019;-83
2022/06/22 05:51:03;;;;;;;1.85;0.80;;;;;;;23.58;38.47;99667.94;4449501;32;34308;-83
2022/06/22 05:53:39;;;;;;;1.45;1.08;;;;;;;23.66;38.19;99668.06;4454466;32;33689;-83
2022/06/22 05:56:19;;;;;;;2.22;1.10;;;;;;;23.89;37.12;99659.50;4457473;32;32605;-83
2022/06/22 05:59:00;;;;;;;1.33;0.90;;;;;;;23.85;38.37;99664.34;4480133;31;34144;-83
2022/06/22 06:02:06;;;;;;;4.28;0.90;;;;;;;23.65;38.16;99663.66;4467919;32;33945;-84
2022/06/22 06:04:48;;;;;;;1.42;0.95;;;;;;;23.81;38.11;99671.03;4461237;31;33338;-83
2022/06/22 06:07:35;;;;;;;2.80;0.70;;;;;;;24.22;39.13;99672.22;4464394;32;31767;-83
2022/06/22 06:10:10;;;;;;;0.70;0.70;;;;;;;23.70;37.13;99672.13;4439344;31;32616;-84
2022/06/22 06:12:44;;;;;;;1.35;1.20;;;;;;;23.84;37.51;99678.84;4448870;32;34452;-84
2022/06/22 06:15:14;;;;;;;1.20;0.85;;;;;;;23.97;38.03;99673.03;4457650;31;33609;-83
2022/06/22 06:17:48;;;;;;;2.37;0.90;;;;;;;24.38;38.70;99676.06;4476666;31;34453;-84
2022/06/22 06:20:24;;;;;;;3.77;1.20;;;;;;;24.47;37.16;99669.72;4478088;31;33144;-83
2022/06/22 06:22:59;;;;;;;2.10;0.90;;;;;;;24.51;37.50;99660.31;4476914;31;32507;-84
2022/06/22 06:28:27;;;;;;;2.50;0.70;;;;;;;24.60;36.53;99670.16;4480715;31;32094;-83
2022/06/22 06:31:05;;;;;;;0.90;0.90;;;;;;;24.53;36.29;99674.47;4476505;31;33071;-83
2022/06/22 06:33:36;;;;;;;2.75;1.25;;;;;;;24.80;36.42;99669.91;4478306;31;33961;-83
2022/06/22 06:36:16;;;;;;;3.03;0.82;;;;;;;24.96;36.11;99665.41;4481578;31;32770;-83
2022/06/22 06:38:56;;;;;;;3.25;0.90;;;;;;;24.67;37.01;99659.53;4467793;31;32393;-83
2022/06/22 06:41:36;;;;;;;0.90;0.85;;;;;;;24.92;37.34;99661.34;4479605;31;31656;-83
2022/06/22 06:44:10;;;;;;;1.17;0.62;;;;;;;24.80;36.98;99661.81;4468132;31;33151;-84
2022/06/22 06:46:38;;;;;;;3.90;1.25;;;;;;;24.45;35.70;99644.72;4474989;31;33221;-84
2022/06/22 06:49:10;;;;;;;1.92;1.00;;;;;;;24.78;37.05;99662.81;4479243;31;33198;-84
2022/06/22 06:51:50;;;;;;;0.82;0.80;;;;;;;24.89;35.60;99652.72;4477326;31;32316;-83
2022/06/22 06:54:23;;;;;;;3.62;0.70;;;;;;;24.61;36.60;99654.78;4491254;31;34018;-84
2022/06/22 06:57:03;;;;;;;2.37;0.82;;;;;;;24.94;35.76;99663.88;4477108;31;32919;-83
2022/06/22 06:59:32;;;;;;;1.12;1.00;;;;;;;25.12;35.62;99661.97;4474480;31;33220;-84
2022/06/22 07:02:16;;;;;;;0.77;0.77;;;;;;;25.26;35.09;99664.03;4468984;31;33608;-84
2022/06/22 07:04:46;;;;;;;2.15;0.88;;;;;;;25.10;34.29;99666.69;4481078;31;33289;-84
2022/06/22 07:07:42;;;;;;;3.83;0.70;;;;;;;25.04;34.88;99659.19;4483961;31;34632;-84
2022/06/22 07:10:36;;;;;;;3.22;0.70;;;;;;;25.06;34.58;99654.47;4488823;31;33445;-84
2022/06/22 07:13:12;;;;;;;1.58;0.90;;;;;;;25.22;32.65;99638.34;4498698;31;32934;-83
2022/06/22 07:15:50;;;;;;;1.50;0.80;;;;;;;25.19;33.16;99633.28;4476130;31;33178;-84
2022/06/22 07:18:24;;;;;;;2.00;0.75;;;;;;;25.23;33.60;99629.22;4488844;31;33222;-85
2022/06/22 07:21:00;;;;;;;2.85;0.60;;;;;;;25.35;32.87;99631.59;4475700;31;32859;-83
2022/06/22 07:23:40;;;;;;;2.30;1.33;;;;;;;25.23;33.41;99633.78;4464611;31;32327;-84
2022/06/22 07:26:13;;;;;;;1.15;0.50;;;;;;;25.51;32.90;99626.25;4463690;31;32970;-84
2022/06/22 07:28:49;;;;;;;1.15;0.88;;;;;;;25.77;31.30;99615.28;4490592;31;35079;-83
2022/06/22 07:31:20;;;;;;;3.75;0.93;;;;;;;25.76;33.68;99630.69;4490845;31;34029;-84
2022/06/22 07:33:54;;;;;;;1.55;0.50;;;;;;;25.90;31.39;99637.28;4477365;31;33429;-84
2022/06/22 07:36:50;;;;;;;2.17;0.82;;;;;;;25.78;30.91;99630.53;4474808;31;34257;-84
2022/06/22 07:39:29;;;;;;;0.50;0.50;;;;;;;25.48;31.97;99621.16;4474483;31;32646;-84
2022/06/22 07:41:59;;;;;;;2.78;0.70;;;;;;;25.55;32.82;99638.41;4497061;31;33591;-84
2022/06/22 07:44:33;;;;;;;1.42;0.75;;;;;;;25.61;32.82;99636.91;4469919;31;33951;-84
2022/06/22 07:47:24;;;;;;;3.67;0.80;;;;;;;25.52;31.03;99631.47;4470938;31;33135;-83
2022/06/22 07:50:05;;;;;;;0.80;0.80;;;;;;;25.61;32.78;99623.38;4482630;31;34168;-86
2022/06/22 07:52:48;;;;;;;4.75;0.73;;;;;;;25.87;33.48;99626.78;4466486;31;33072;-85
2022/06/22 07:55:31;;;;;;;1.85;0.73;;;;;;;26.14;30.97;99628.28;4482059;31;33149;-86
2022/06/22 07:58:16;;;;;;;0.82;0.60;;;;;;;26.15;29.27;99629.97;4488902;31;33463;-87
2022/06/22 08:00:48;;;;;;;0.95;0.70;;;;;;;26.49;30.34;99628.91;4478929;31;33724;-86
2022/06/22 08:03:21;;;;;;;;;;;;;;;26.46;31.55;99632.00;4493145;31;31948;-86
2022/06/22 08:05:52;;;;;;;0.80;0.47;;;;;;;26.58;30.80;99616.19;4486406;31;32045;-86
2022/06/22 08:08:26;;;;;;;1.55;1.02;;;;;;;26.59;27.56;99612.47;4469021;31;33913;-87
2022/06/22 08:11:03;;;;;;;1.95;0.52;;;;;;;26.75;29.26;99609.72;4482039;31;34306;-85
2022/06/22 08:14:01;;;;;;;4.12;0.80;;;;;;;26.65;28.99;99598.25;4476804;31;31440;-85
2022/06/22 08:16:34;;;;;;;3.83;0.50;;;;;;;27.19;29.46;99598.34;4476560;31;33207;-86
2022/06/22 08:19:06;;;;;;;0.95;0.47;;;;;;;26.99;27.71;99596.06;4478846;31;32804;-85
2022/06/22 08:21:41;;;;;;;1.40;0.60;;;;;;;27.02;28.16;99600.28;4490487;31;33394;-85
2022/06/22 08:24:12;;;;;;;1.80;0.50;;;;;;;27.17;27.71;99601.25;4494225;31;33603;-85
2022/06/22 08:26:41;;;;;;;1.55;0.60;;;;;;;27.78;27.65;99595.91;4491500;31;32737;-85
2022/06/22 08:29:10;;;;;;;1.92;0.88;;;;;;;27.89;26.55;99603.59;4482159;31;33928;-85
2022/06/22 08:31:46;;;;;;;0.77;0.32;;;;;;;27.87;25.53;99588.53;4487988;31;33824;-85
2022/06/22 08:34:39;;;;;;;0.70;0.30;;;;;;;27.96;24.93;99587.41;4483732;31;33176;-85
2022/06/22 08:37:14;;;;;;;0.65;0.40;;;;;;;28.03;25.48;99594.66;4474473;31;32839;-84
2022/06/22 08:39:49;;;;;;;0.55;0.43;;;;;;;27.78;25.77;99594.03;4478353;31;33156;-85
2022/06/22 08:42:39;;;;;;;1.80;1.00;;;;;;;27.42;26.97;99593.78;4475887;31;33034;-85
2022/06/22 08:45:18;;;;;;;1.42;0.60;;;;;;;27.72;25.98;99586.62;4487397;31;33730;-87
2022/06/22 08:48:06;;;;;;;4.15;0.47;;;;;;;28.34;26.28;99588.25;4490665;31;32851;-85
2022/06/22 08:50:57;;;;;;;1.15;0.60;;;;;;;28.28;25.14;99595.22;4475365;31;34062;-86
2022/06/22 08:53:58;;;;;;;2.10;0.40;;;;;;;28.43;24.95;99583.56;4480135;31;33559;-84
2022/06/22 08:56:59;;;;;;;2.35;0.40;;;;;;;28.77;23.12;99586.56;4479681;31;33050;-84
2022/06/22 08:59:33;;;;;;;0.73;0.30;;;;;;;29.11;24.69;99585.12;4477770;31;33120;-83
2022/06/22 09:02:14;;;;;;;0.93;0.37;;;;;;;29.03;23.44;99596.09;4493166;31;34599;-83
2022/06/22 09:05:14;;;;;;;0.82;0.40;;;;;;;28.55;22.11;99590.22;4488019;31;33145;-84
2022/06/22 09:07:52;;;;;;;0.62;0.45;;;;;;;28.65;21.70;99579.91;4494687;31;32848;-84
2022/06/22 09:10:47;;;;;;;0.73;0.40;;;;;;;29.06;21.15;99595.72;4470114;31;198584;-84
2022/06/22 09:13:21;;;;;;;0.55;0.30;;;;;;;29.04;21.22;99590.44;4475157;31;33386;-84
2022/06/22 09:16:08;;;;;;;1.83;0.25;;;;;;;29.31;18.57;99588.03;4484896;31;33136;-84
2022/06/22 09:18:58;;;;;;;1.58;0.70;;;;;;;29.10;19.28;99583.41;4475728;31;33698;-84
2022/06/22 09:21:37;;;;;;;1.33;0.30;;;;;;;29.38;18.94;99588.09;4500209;31;33222;-83
2022/06/22 09:24:19;;;;;;;1.25;0.30;;;;;;;29.17;21.64;99581.63;4475872;31;33207;-84
2022/06/22 09:27:18;;;;;;;1.95;0.73;;;;;;;29.37;19.39;99581.81;4489805;31;33683;-84
2022/06/22 09:29:53;;;;;;;1.15;0.20;;;;;;;29.24;20.91;99574.34;4489452;31;33304;-85
2022/06/22 09:32:40;;;;;;;0.40;0.40;;;;;;;29.40;21.79;99575.16;4494979;31;32960;-84
2022/06/22 09:35:28;;;;;;;0.90;0.28;;;;;;;29.69;21.64;99569.59;4486116;31;33900;-84
2022/06/22 09:38:12;;;;;;;1.27;0.52;;;;;;;29.65;19.12;99567.47;4489981;31;33637;-84
2022/06/22 09:41:01;;;;;;;3.12;0.80;;;;;;;29.44;20.87;99571.03;4488153;31;33659;-84
2022/06/22 09:43:57;;;;;;;0.85;0.40;;;;;;;29.36;20.66;99568.41;4472316;31;33379;-84
2022/06/22 09:46:51;;;;;;;0.85;0.37;;;;;;;29.74;20.98;99572.56;4475935;31;33558;-84
2022/06/22 09:49:50;;;;;;;0.52;0.40;;;;;;;30.09;19.78;99564.44;4494125;31;33468;-84
2022/06/22 09:52:58;;;;;;;2.05;0.40;;;;;;;30.07;20.55;99567.37;4477385;31;34038;-83
2022/06/22 09:58:34;;;;;;;1.15;0.45;;;;;;;29.46;20.49;99575.22;4488639;31;34505;-83
2022/06/22 10:01:09;;;;;;;1.30;0.37;;;;;;;29.47;22.41;99563.28;4474578;31;33536;-83
2022/06/22 10:04:12;;;;;;;0.40;0.40;;;;;;;29.66;21.58;99569.97;4475491;31;31410;-83
2022/06/22 10:06:59;;;;;;;1.45;0.50;;;;;;;30.29;21.55;99564.59;4485102;31;33853;-83
2022/06/22 10:10:00;;;;;;;2.87;0.50;;;;;;;30.52;19.96;99569.78;4486055;31;33033;-85
2022/06/22 10:12:53;;;;;;;0.52;0.30;;;;;;;30.64;18.92;99556.44;4491849;31;33523;-85
2022/06/22 10:16:19;;;;;;;0.40;0.30;;;;;;;30.95;19.03;99558.66;4476301;31;33980;-85
2022/06/22 10:22:20;;;;;;;1.33;0.30;;;;;;;30.76;18.11;99561.09;4479894;31;32899;-85
2022/06/22 10:25:29;;;;;;;2.37;0.47;;;;;;;30.54;19.90;99567.69;4469642;31;33355;-85
2022/06/22 10:28:18;;;;;;;0.43;0.40;;;;;;;30.72;19.99;99570.75;4426718;32;33276;-85
2022/06/22 10:31:03;;;;;;;0.50;0.43;;;;;;;30.83;20.06;99567.44;4473225;31;33188;-85
2022/06/22 10:34:06;;;;;;;0.85;0.40;;;;;;;30.57;18.97;99562.66;4495107;31;34037;-85
2022/06/22 10:36:45;;;;;;;0.40;0.30;;;;;;;30.19;20.31;99559.53;4496094;31;34909;-85
2022/06/22 10:39:22;;;;;;;1.40;0.40;;;;;;;30.03;21.00;99565.25;4492122;31;33392;-85
2022/06/22 10:45:11;;;;;;;0.57;0.37;;;;;;;30.03;22.77;99576.16;4494601;31;33664;-85
2022/06/22 10:48:14;;;;;;;1.85;0.35;;;;;;;30.49;22.05;99570.19;4487776;31;32850;-85
2022/06/22 10:51:25;;;;;;;0.68;0.55;;;;;;;30.76;21.41;99561.09;4466782;31;34022;-86
2022/06/22 10:54:02;;;;;;;1.27;0.60;;;;;;;31.05;20.17;99570.00;4468338;31;33087;-85
2022/06/22 10:56:54;;;;;;;0.77;0.50;;;;;;;30.91;19.75;99557.38;4489708;31;33385;-85
2022/06/22 10:59:40;;;;;;;3.65;0.52;;;;;;;30.68;19.91;99569.44;4476190;31;34368;-85
2022/06/22 11:02:56;;;;;;;0.52;0.43;;;;;;;31.04;21.75;99562.88;4495407;31;33311;-85
2022/06/22 11:05:42;;;;;;;0.75;0.50;;;;;;;31.25;20.21;99557.28;4498419;31;34675;-86
2022/06/22 11:08:38;;;;;;;3.03;0.60;;;;;;;31.15;19.66;99564.19;4503025;31;34318;-85
2022/06/22 11:11:09;;;;;;;2.03;0.60;;;;;;;31.25;20.45;99560.03;4473798;31;36072;-85
2022/06/22 11:13:46;;;;;;;1.10;0.80;;;;;;;31.40;21.20;99561.75;4495452;31;34116;-85
2022/06/22 11:16:35;;;;;;;0.98;0.40;;;;;;;31.33;19.94;99557.13;4492382;31;33015;-85
2022/06/22 11:19:34;;;;;;;0.75;0.60;;;;;;;30.67;22.47;99548.69;4492996;31;31971;-85
2022/06/22 11:22:17;;;;;;;4.68;1.15;;;;;;;30.66;20.81;99555.16;4484571;31;34161;-85
2022/06/22 11:25:12;;;;;;;2.08;0.60;;;;;;;31.08;21.68;99550.53;4490604;31;34660;-85
2022/06/22 11:30:51;;;;;;;2.40;0.77;;;;;;;31.52;19.18;99557.34;4492647;31;33074;-85
2022/06/22 11:33:38;;;;;;;2.10;0.50;;;;;;;30.97;19.66;99549.25;4489559;31;33556;-85
2022/06/22 11:36:26;;;;;;;3.47;0.70;;;;;;;31.24;20.76;99558.34;4481483;31;34085;-85
2022/06/22 11:39:37;;;;;;;0.68;0.43;;;;;;;31.40;19.97;99542.66;4493390;31;33018;-85
2022/06/22 11:42:18;;;;;;;0.97;0.70;;;;;;;31.42;20.99;99535.09;4475815;31;34448;-85
2022/06/22 11:48:23;;;;;;;1.48;0.52;;;;;;;31.79;22.51;99528.16;4481313;31;32558;-85
2022/06/22 11:50:56;;;;;;;2.90;0.95;;;;;;;31.59;22.35;99522.72;4433229;32;32810;-85
2022/06/22 11:53:30;;;;;;;1.25;0.80;;;;;;;30.45;24.97;99496.19;4486219;31;33653;-85
2022/06/22 11:56:08;;;;;;;0.93;0.70;;;;;;;31.25;24.89;99516.38;4491393;31;33035;-85
2022/06/22 11:58:52;;;;;;;0.50;0.50;;;;;;;31.83;20.93;99503.00;4480970;31;34690;-85
2022/06/22 12:01:35;;;;;;;2.03;0.70;;;;;;;31.99;22.15;99506.31;4484466;31;32179;-85
2022/06/22 12:04:20;;;;;;;1.67;0.75;;;;;;;31.71;24.09;99512.84;4491756;31;33736;-84
2022/06/22 12:07:11;;;;;;;2.28;0.60;;;;;;;32.42;21.64;99505.81;4484116;31;33875;-85
2022/06/22 12:09:55;;;;;;;0.50;0.50;;;;;;;32.29;20.75;99507.53;4473145;31;32869;-84
2022/06/22 12:12:35;;;;;;;1.15;0.60;;;;;;;32.09;20.18;99502.12;4479154;31;33318;-85
2022/06/22 12:15:32;;;;;;;2.60;0.60;;;;;;;32.00;21.48;99502.53;4489206;31;33501;-85
2022/06/22 12:18:16;;;;;;;2.00;0.90;;;;;;;32.32;20.45;99507.06;4504289;31;33831;-85
2022/06/22 12:21:03;;;;;;;1.73;1.00;;;;;;;32.25;23.19;99516.38;4481202;31;32728;-85
2022/06/22 12:23:45;;;;;;;0.62;0.50;;;;;;;32.87;20.53;99493.84;4467175;31;32529;-86
2022/06/22 12:26:29;;;;;;;3.20;0.80;;;;;;;32.88;19.94;99500.97;4475480;31;34789;-86
2022/06/22 12:29:14;;;;;;;1.45;0.65;;;;;;;32.59;20.82;99490.63;4487351;31;33967;-85
2022/06/22 12:31:49;;;;;;;1.02;0.65;;;;;;;32.68;20.85;99489.31;4480848;31;33601;-85
2022/06/22 12:35:04;;;;;;;3.97;1.35;;;;;;;32.87;20.49;99504.78;4487103;31;33527;-85
2022/06/22 12:37:49;;;;;;;1.08;0.77;;;;;;;32.92;19.51;99490.47;4480826;31;33946;-85
2022/06/22 12:40:25;;;;;;;1.75;0.75;;;;;;;32.75;20.56;99487.38;4478041;31;33688;-85
2022/06/22 12:43:10;;;;;;;5.10;0.85;;;;;;;32.67;21.27;99481.34;4486355;31;33088;-85
2022/06/22 12:45:53;;;;;;;2.30;1.15;;;;;;;32.51;23.50;99482.66;4492157;31;33302;-86
2022/06/22 12:48:43;;;;;;;2.00;0.98;;;;;;;32.44;21.54;99476.41;4489910;31;33775;-85
2022/06/22 12:51:26;;;;;;;1.60;0.88;;;;;;;32.89;21.92;99474.47;4492935;31;33711;-85
2022/06/22 12:54:09;;;;;;;1.58;0.88;;;;;;;32.44;22.22;99471.78;4478775;31;34145;-85
2022/06/22 12:56:43;;;;;;;2.15;0.88;;;;;;;32.67;23.50;99470.41;4486896;31;35354;-85
2022/06/22 12:59:18;;;;;;;1.35;0.70;;;;;;;32.81;23.65;99461.91;4475878;31;33078;-85